Tongelre, Netherlands
Current Conditions -  °F | °C
As of 10:00 AM on Saturday 25 Oct 2014 (Local Time) from EHEH Reporting Station
Haze Haze  
Wind Chill: 55°   Ceiling: 300
Heat Index: 55°   Visibility: 0.81mi
Dew Point: 54°   Wind: 8mph
Humidity: 94%   Direction: 210°SSW
Pressure: 30.03"   Gusts: NA
Location:  51.45°N, 5.52°E
Report Text: EHEH 250800Z AUTO 21007KT 1300 R21/1900 BR SCT002 OVC003 13/12 Q1017 AMB 22008KT 3000 BR -RADZ SCT004 BKN006 OVC008 TEMPO 1200 SCT002 BKN004 OVC006
Loading
Personal Weather Stations






























Interactive Weather Map
Tropical Storm Tracking
New forecast layout! Learn more

10-Day Weather Forecast

Advertisements
Track Severe Weather on mobile